Terminal Aerodrome Forecast
Issued by NWS

Home | Current Version | Previous Version | Text Only | Print | Product List | Glossary On
Versions: 1 2 3 4 5 6 7 8 9 10 11 12 13 14 15 16 17 18 19 20 21 22 23 24 25 26 27 28 29 30 31 32 33
000
FTUS45 KBOI 020113 AAA
TAFMYL
TAF AMD
KMYL 020113Z 0201/0224 VRB06KT P6SM VCTS SCT050CB BKN090
      TEMPO 0201/0203 VRB20G30KT -TSRA BKN050CB
     FM020600 VRB06KT P6SM SCT050 BKN090
     FM021100 19008KT P6SM -SHRA SCT025 OVC050=

USA.gov is the U.S. government's official web portal to all federal, state and local government web resources and services.